Anderson, Indiana
Current Conditions -  °F | °C
As of 5:53 AM on Tuesday 21 Oct 2014 (Local Time) from KMIE Reporting Station
Overcast Overcast  
Wind Chill:   Ceiling: 5000
Heat Index:   Visibility: 10mi
Dew Point:   Wind: 8mph
Humidity: 86%   Direction: 310°NW
Pressure: 29.97"   Gusts: NA
Location:  40.1°N, 85.68°W
Report Text: KMIE 210953Z 31007KT 10SM OVC050 09/07 A2997 RMK AO2 SLP146 T00940072
Loading
Personal Weather Stations






























Interactive Weather Map
Tropical Storm Tracking
New forecast layout! Learn more

10-Day Weather Forecast

Advertisements
Track Severe Weather on mobile